Briefing drone pour Coursan

Rechercher une autre localisation

Conditions de vol :


Nous sommes le : Samedi 06 mars 2021
Il est 22:55 UTC (23:55 LT)

Lever de soleil : 05:48 UTC (06:48 LT)
Coucher de soleil : 18:09 UTC (19:09 LT)

Météo

L'essentiel des conditions de vol

VIGILANCE MÉTÉO FRANCE - Aude (11)
Pas de vigilances particulieres
METAR de LFMU
LFMU 062230Z AUTO 01001KT 9999 OVC017 10/08 Q1025

Date d'émission: 06/03/2021
Heure d'émission: 22:30 UTC
Vent: 010° pour 1 KT (2 km/h)
Visibilité horizontale: > 10 km
Plafond :
- Couvert à 1700ft (518m)
Température: 10 °C
Point de rosée: 8 °C
Humidité: 87%
Pression (QNH): 1025 hPa
TAF de LFMU
LFMU 061931Z 0619/0715 CNL

Conditions prévues :

Heure d'émission : Bulletin éffectué le 06 à 19:00 UTC
Prévision : Valide du 06 a 19:00 UTC au 07 a 15:00 UTC
Nuages : à 0ft (0 m)
WEBCAM POUR COURSAN

Réglementation

Voler en sécurité

CARTES AERONAUTIQUE 1/500.000
CARTES VAC (LFMU)
SUP AIP




Chargement des AIP...
NOTAM (COURSAN + Terrain à proximité / FIR )




Chargement des NOTAMS...
CONTACT PREFECTURE 11


Avertissement : Les données mises à disposition sont indicatives. Oxygène Drone ne pourra être tenu responsable de dégâts causés aux biens et aux personnes.